createdAt,value
2023-02-14T00:04:47.282Z,1027.9
2023-02-14T00:09:47.449Z,1027.9
2023-02-14T00:14:47.285Z,1027.9
2023-02-14T00:19:47.298Z,1027.9
2023-02-14T00:24:47.272Z,1027.8
2023-02-14T00:29:47.513Z,1027.8
2023-02-14T00:34:47.244Z,1027.8
2023-02-14T00:39:47.478Z,1027.8
2023-02-14T00:44:47.245Z,1027.7
2023-02-14T00:49:47.453Z,1027.6
2023-02-14T00:54:47.331Z,1027.6
2023-02-14T00:59:47.497Z,1027.6
2023-02-14T01:04:47.340Z,1027.5
2023-02-14T01:09:47.510Z,1027.4
2023-02-14T01:14:47.322Z,1027.4
2023-02-14T01:19:47.521Z,1027.3
2023-02-14T01:24:47.339Z,1027.3
2023-02-14T01:29:47.539Z,1027.2
2023-02-14T01:34:47.322Z,1027.1
2023-02-14T01:39:47.490Z,1027.1
2023-02-14T01:44:47.335Z,1027.1
2023-02-14T01:49:47.510Z,1027.1
2023-02-14T01:54:47.363Z,1027.1
2023-02-14T01:59:47.698Z,1027.0
2023-02-14T02:04:47.364Z,1027.0
2023-02-14T02:09:47.532Z,1027.0
2023-02-14T02:14:47.407Z,1027.0
2023-02-14T02:19:47.580Z,1026.9
2023-02-14T02:24:47.412Z,1026.9
2023-02-14T02:29:47.687Z,1026.8
2023-02-14T02:34:47.445Z,1026.8
2023-02-14T02:39:47.615Z,1026.8
2023-02-14T02:44:47.448Z,1026.8
2023-02-14T02:49:47.770Z,1026.8
2023-02-14T02:54:47.463Z,1026.8
2023-02-14T02:59:47.633Z,1026.8
2023-02-14T03:04:47.868Z,1026.8
2023-02-14T03:09:47.657Z,1026.8
2023-02-14T03:14:47.690Z,1026.8
2023-02-14T03:19:47.546Z,1026.7
2023-02-14T03:24:47.534Z,1026.6
2023-02-14T03:29:47.966Z,1026.6
2023-02-14T03:34:47.541Z,1026.5
2023-02-14T03:39:47.735Z,1026.5
2023-02-14T03:44:47.536Z,1026.6
2023-02-14T03:49:47.700Z,1026.5
2023-02-14T03:54:47.545Z,1026.5
2023-02-14T03:59:47.731Z,1026.5
2023-02-14T04:04:47.552Z,1026.5
2023-02-14T04:09:47.763Z,1026.5
2023-02-14T04:14:47.565Z,1026.4
2023-02-14T04:19:47.766Z,1026.6
2023-02-14T04:24:47.619Z,1026.5
2023-02-14T04:29:47.829Z,1026.4
2023-02-14T04:34:47.613Z,1026.4
2023-02-14T04:39:47.799Z,1026.4
2023-02-14T04:44:47.592Z,1026.4
2023-02-14T04:49:47.800Z,1026.7
2023-02-14T04:54:47.600Z,1026.6
2023-02-14T04:59:47.813Z,1026.6
2023-02-14T05:04:49.660Z,1026.5
2023-02-14T05:09:47.840Z,1026.6
2023-02-14T05:14:47.641Z,1026.6
2023-02-14T05:19:47.834Z,1026.5
2023-02-14T05:24:47.682Z,1026.5
2023-02-14T05:29:47.900Z,1026.6
2023-02-14T05:34:47.660Z,1026.5
2023-02-14T05:39:47.837Z,1026.6
2023-02-14T05:44:47.725Z,1026.5
2023-02-14T05:49:47.919Z,1026.5
2023-02-14T05:54:47.727Z,1026.6
2023-02-14T05:59:47.903Z,1026.5
2023-02-14T06:04:47.804Z,1026.5
2023-02-14T06:09:47.931Z,1026.6
2023-02-14T06:14:47.723Z,1026.6
2023-02-14T06:19:47.921Z,1026.6
2023-02-14T06:24:47.761Z,1026.6
2023-02-14T06:29:48.115Z,1026.5
2023-02-14T06:34:47.907Z,1026.6
2023-02-14T06:39:47.952Z,1026.7
2023-02-14T06:44:47.788Z,1026.7
2023-02-14T06:49:47.968Z,1026.7
2023-02-14T06:54:47.800Z,1026.6
2023-02-14T06:59:47.978Z,1026.6
2023-02-14T07:04:47.778Z,1026.7
2023-02-14T07:09:47.991Z,1026.6
2023-02-14T07:14:47.807Z,1026.6
2023-02-14T07:19:47.994Z,1026.7
2023-02-14T07:24:47.810Z,1026.7
2023-02-14T07:29:48.044Z,1026.7
2023-02-14T07:34:47.847Z,1026.8
2023-02-14T07:39:48.025Z,1026.8
2023-02-14T07:44:47.891Z,1026.8
2023-02-14T07:49:48.182Z,1026.8
2023-02-14T07:54:47.873Z,1026.8
2023-02-14T07:59:48.068Z,1026.9
2023-02-14T08:04:47.928Z,1026.8
2023-02-14T08:09:48.096Z,1027.0
2023-02-14T08:14:47.896Z,1027.0
2023-02-14T08:19:48.052Z,1026.9
2023-02-14T08:29:48.108Z,1026.9
2023-02-14T08:34:47.902Z,1027.0
2023-02-14T08:39:48.103Z,1027.1
2023-02-14T08:44:47.919Z,1027.0
2023-02-14T08:49:48.130Z,1027.1
2023-02-14T08:54:47.925Z,1027.2
2023-02-14T08:59:48.164Z,1027.2
2023-02-14T09:04:48.020Z,1027.1
2023-02-14T09:09:48.043Z,1027.1
2023-02-14T09:14:47.970Z,1027.1
2023-02-14T09:19:48.102Z,1027.1
2023-02-14T09:24:47.962Z,1027.0
2023-02-14T09:29:48.165Z,1026.9
2023-02-14T09:34:47.973Z,1026.9
2023-02-14T09:39:48.144Z,1027.0
2023-02-14T09:44:48.078Z,1026.9
2023-02-14T09:49:48.434Z,1026.9
2023-02-14T09:54:48.056Z,1026.9
2023-02-14T09:59:48.565Z,1026.8
2023-02-14T10:04:48.045Z,1026.8
2023-02-14T10:09:48.179Z,1026.8
2023-02-14T10:14:48.048Z,1026.8
2023-02-14T10:19:48.186Z,1026.8
2023-02-14T10:24:48.045Z,1027.0
2023-02-14T10:29:48.181Z,1027.0
2023-02-14T10:34:48.092Z,1027.0
2023-02-14T10:39:48.199Z,1027.0
2023-02-14T10:44:48.073Z,1026.9
2023-02-14T10:49:48.367Z,1026.9
2023-02-14T10:54:48.109Z,1026.8
2023-02-14T10:59:48.394Z,1026.8
2023-02-14T11:04:48.143Z,1026.9
2023-02-14T11:09:48.597Z,1026.8
2023-02-14T11:14:48.127Z,1026.7
2023-02-14T11:19:48.574Z,1026.7
2023-02-14T11:24:48.153Z,1026.6
2023-02-14T11:29:48.631Z,1026.7
2023-02-14T11:34:48.194Z,1026.6
2023-02-14T11:39:48.632Z,1026.7
2023-02-14T11:44:48.155Z,1026.6
2023-02-14T11:49:48.544Z,1026.6
2023-02-14T11:54:48.177Z,1026.5
2023-02-14T11:59:48.649Z,1026.5
2023-02-14T12:04:48.223Z,1026.4
2023-02-14T12:09:48.587Z,1026.3
2023-02-14T12:14:48.190Z,1026.3
2023-02-14T12:19:48.384Z,1026.3
2023-02-14T12:24:48.255Z,1026.2
2023-02-14T12:29:48.682Z,1026.1
2023-02-14T12:34:48.248Z,1026.0
2023-02-14T12:39:49.035Z,1026.0
2023-02-14T12:44:48.223Z,1025.9
2023-02-14T12:49:48.413Z,1025.9
2023-02-14T12:54:48.222Z,1025.9
2023-02-14T12:59:48.418Z,1025.8
2023-02-14T13:04:48.644Z,1025.8
2023-02-14T13:09:48.674Z,1025.7
2023-02-14T13:14:48.290Z,1025.5
2023-02-14T13:19:48.686Z,1025.6
2023-02-14T13:24:48.340Z,1025.6
2023-02-14T13:29:48.769Z,1025.7
2023-02-14T13:34:48.325Z,1025.5
2023-02-14T13:39:48.511Z,1025.4
2023-02-14T13:44:48.319Z,1025.4
2023-02-14T13:49:48.750Z,1025.5
2023-02-14T13:54:48.361Z,1025.5
2023-02-14T13:59:48.743Z,1025.3
2023-02-14T14:04:48.367Z,1025.4
2023-02-14T14:09:48.775Z,1025.4
2023-02-14T14:14:48.388Z,1025.3
2023-02-14T14:19:48.802Z,1025.3
2023-02-14T14:24:48.412Z,1025.3
2023-02-14T14:29:48.684Z,1025.2
2023-02-14T14:34:48.424Z,1025.1
2023-02-14T14:39:48.469Z,1025.1
2023-02-14T14:44:48.401Z,1025.0
2023-02-14T14:49:48.600Z,1025.2
2023-02-14T14:54:48.470Z,1025.1
2023-02-14T14:59:48.691Z,1025.2
2023-02-14T15:04:48.571Z,1025.2
2023-02-14T15:09:48.729Z,1025.1
2023-02-14T15:14:48.446Z,1025.0
2023-02-14T15:19:48.735Z,1025.0
2023-02-14T15:24:48.478Z,1025.1
2023-02-14T15:29:48.762Z,1025.1
2023-02-14T15:34:48.455Z,1025.1
2023-02-14T15:39:48.566Z,1025.1
2023-02-14T15:44:48.486Z,1025.0
2023-02-14T15:49:48.763Z,1025.0
2023-02-14T15:54:48.515Z,1025.0
2023-02-14T15:59:48.623Z,1024.9
2023-02-14T16:04:48.557Z,1025.0
2023-02-14T16:09:48.630Z,1024.9
2023-02-14T16:14:48.501Z,1024.9
2023-02-14T16:19:48.623Z,1024.8
2023-02-14T16:24:48.525Z,1024.7
2023-02-14T16:29:48.701Z,1024.7
2023-02-14T16:34:48.580Z,1024.7
2023-02-14T16:39:48.604Z,1024.6
2023-02-14T16:44:48.561Z,1024.6
2023-02-14T16:49:48.705Z,1024.6
2023-02-14T16:54:48.598Z,1024.7
2023-02-14T16:59:48.772Z,1024.8
2023-02-14T17:04:48.568Z,1024.8
2023-02-14T17:09:48.989Z,1024.7
2023-02-14T17:14:48.606Z,1024.7
2023-02-14T17:19:50.888Z,1024.6
2023-02-14T17:24:48.606Z,1024.7
2023-02-14T17:29:49.084Z,1024.7
2023-02-14T17:34:48.850Z,1024.7
2023-02-14T17:39:49.072Z,1024.8
2023-02-14T17:44:48.679Z,1024.9
2023-02-14T17:49:49.156Z,1024.8
2023-02-14T17:54:48.711Z,1024.8
2023-02-14T17:59:49.118Z,1024.8
2023-02-14T18:04:48.731Z,1024.7
2023-02-14T18:09:49.128Z,1024.7
2023-02-14T18:14:48.694Z,1024.6
2023-02-14T18:19:49.129Z,1024.6
2023-02-14T18:24:48.685Z,1024.7
2023-02-14T18:29:48.850Z,1024.7
2023-02-14T18:34:48.726Z,1024.7
2023-02-14T18:39:49.115Z,1024.6
2023-02-14T18:44:48.712Z,1024.5
2023-02-14T18:49:49.146Z,1024.5
2023-02-14T18:54:48.771Z,1024.5
2023-02-14T18:59:49.146Z,1024.5
2023-02-14T19:04:48.793Z,1024.5
2023-02-14T19:09:49.204Z,1024.5
2023-02-14T19:14:48.794Z,1024.5
2023-02-14T19:19:49.480Z,1024.4
2023-02-14T19:24:49.243Z,1024.4
2023-02-14T19:29:49.420Z,1024.5
2023-02-14T19:34:49.080Z,1024.4
2023-02-14T19:39:49.000Z,1024.4
2023-02-14T19:44:48.853Z,1024.4
2023-02-14T19:49:49.764Z,1024.3
2023-02-14T19:54:48.833Z,1024.3
2023-02-14T19:59:49.239Z,1024.3
2023-02-14T20:04:48.854Z,1024.3
2023-02-14T20:09:49.347Z,1024.3
2023-02-14T20:14:51.640Z,1024.2
2023-02-14T20:19:49.266Z,1024.2
2023-02-14T20:24:48.916Z,1024.3
2023-02-14T20:29:49.313Z,1024.2
2023-02-14T20:34:48.912Z,1024.0
2023-02-14T20:39:49.357Z,1024.1
2023-02-14T20:44:48.916Z,1024.0
2023-02-14T20:49:49.325Z,1024.0
2023-02-14T20:54:48.951Z,1024.0
2023-02-14T20:59:49.197Z,1023.8
2023-02-14T21:04:48.970Z,1023.8
2023-02-14T21:09:49.343Z,1023.8
2023-02-14T21:14:48.973Z,1023.8
2023-02-14T21:19:49.531Z,1023.8
2023-02-14T21:24:48.956Z,1023.7
2023-02-14T21:29:49.162Z,1023.7
2023-02-14T21:34:49.005Z,1023.6
2023-02-14T21:39:49.141Z,1023.6
2023-02-14T21:44:49.005Z,1023.6
2023-02-14T21:49:49.153Z,1023.6
2023-02-14T21:54:48.983Z,1023.6
2023-02-14T21:59:49.198Z,1023.5
2023-02-14T22:04:49.039Z,1023.4
2023-02-14T22:09:49.217Z,1023.4
2023-02-14T22:14:49.042Z,1023.3
2023-02-14T22:24:49.053Z,1023.2
2023-02-14T22:29:49.326Z,1023.2
2023-02-14T22:34:49.056Z,1023.2
2023-02-14T22:39:49.258Z,1023.2
2023-02-14T22:44:49.073Z,1023.2
2023-02-14T22:49:49.276Z,1023.2
2023-02-14T22:54:49.106Z,1023.1
2023-02-14T22:59:49.235Z,1022.9
2023-02-14T23:04:49.132Z,1022.9
2023-02-14T23:09:49.620Z,1022.9
2023-02-14T23:14:49.145Z,1022.9
2023-02-14T23:19:49.319Z,1022.9
2023-02-14T23:24:49.146Z,1022.8
2023-02-14T23:29:49.332Z,1022.7
2023-02-14T23:34:49.126Z,1022.8
2023-02-14T23:39:49.294Z,1022.7
2023-02-14T23:44:49.163Z,1022.7
2023-02-14T23:49:49.352Z,1022.7
2023-02-14T23:54:49.157Z,1022.6
2023-02-14T23:59:49.358Z,1022.5
